Woodstock, VT (05091)

6:52 AM EDT on September 04, 2015 (GMT -0400)
Quechee Schoolhouse | | Change Station
CLOSE
Current Station
Personal Weather Station
Location: Woodstock, VT
Elevation: 1024 ft
Nearby Weather Stations

Elev 1024 ft 43.65 °N, 72.47 °W | Updated 5 seconds ago

Partly Cloudy
Partly Cloudy
55.2 °F
Feels Like 55.2 °F
N
0.0
Wind Variable Wind from West
Gusts 0.0 mph

Today
High -- | Low -- °F
--% Chance of Precip.
Yesterday
High -- | Low -- °F
Precip. -- in
6:16 AM 7:20 PM
Waning Gibbous, 60% visible
Pressure 30.08 in
Visibility 8.0 miles
Clouds Scattered Clouds 4600 ft
Dew Point 54 °F
Humidity 95%
Rainfall 0.00 in
Snow Depth Not available.
UV 0.0 out of 12
Pollen 7.70 out of 12
Air Quality Not available.
Flu Activity Not available.
METAR KLEB 040953Z AUTO 04003KT 8SM SCT046 13/12 A3010 RMK AO2 SLP186 T01330122
Pressure 30.08 in
Visibility 8.0 miles
Clouds Scattered Clouds 4600 ft
Dew Point 54 °F
Humidity 95%
Rainfall 0.00 in
Snow Depth Not available.
UV 0.0 out of 12
Pollen 7.70 out of 12
Air Quality Not available.
Flu Activity Not available.
METAR KLEB 040953Z AUTO 04003KT 8SM SCT046 13/12 A3010 RMK AO2 SLP186 T01330122

10-Day Weather Forecast

×

Almanac

Astronomy

Sep. 04, 2015 Rise Set
Actual Time
Civil Twilight
Nautical Twilight
Astronomical Twilight
Moon
Length of Visible Light
Length of Day
Tomorrow will be .
, % of the Moon is Illuminated

Today's Extremes

State Highs State Lows

Community

WunderPhotos

Upload Photos

1,852,146 photos uploaded!

WunderBlogs® & News

Nearby

Air Quality

  Air Quality AQ Index Pollutant
Not available.

Snow Depth

Station Depth Elevation

Earthquake Activity

City Distance Mag. Time & Date
Minimum magnitude displayed is 2.5.

Coastal Water Temperatures

Place Temperature

Stations

Nearby Weather Stations

Station Location Temp. Windchill Dew Point Humidity Wind Precip. Elev Updated Type